sensor_id;sensor_type;location;lat;lon;timestamp;P1;durP1;ratioP1;P2;durP2;ratioP2
35442;SDS011;21561;55.654;37.592;2023-03-04T00:02:18;13.82;;;3.10;;
35442;SDS011;21561;55.654;37.592;2023-03-04T00:04:45;12.27;;;3.38;;
35442;SDS011;21561;55.654;37.592;2023-03-04T00:07:11;13.43;;;3.05;;
35442;SDS011;21561;55.654;37.592;2023-03-04T00:09:42;11.50;;;3.00;;
35442;SDS011;21561;55.654;37.592;2023-03-04T00:12:10;12.32;;;3.40;;
35442;SDS011;21561;55.654;37.592;2023-03-04T00:14:38;13.52;;;3.20;;
35442;SDS011;21561;55.654;37.592;2023-03-04T00:17:05;14.77;;;3.78;;
35442;SDS011;21561;55.654;37.592;2023-03-04T00:19:32;10.25;;;3.03;;
35442;SDS011;21561;55.654;37.592;2023-03-04T00:22:01;13.77;;;3.30;;
35442;SDS011;21561;55.654;37.592;2023-03-04T00:24:29;12.70;;;3.22;;
35442;SDS011;21561;55.654;37.592;2023-03-04T00:26:56;10.45;;;2.95;;
35442;SDS011;21561;55.654;37.592;2023-03-04T00:29:23;9.90;;;3.42;;
35442;SDS011;21561;55.654;37.592;2023-03-04T00:31:50;12.85;;;3.20;;
35442;SDS011;21561;55.654;37.592;2023-03-04T00:34:17;12.02;;;3.13;;
35442;SDS011;21561;55.654;37.592;2023-03-04T00:36:43;11.25;;;3.00;;
35442;SDS011;21561;55.654;37.592;2023-03-04T00:39:11;11.13;;;3.38;;
35442;SDS011;21561;55.654;37.592;2023-03-04T00:41:38;14.40;;;3.55;;
35442;SDS011;21561;55.654;37.592;2023-03-04T00:44:05;12.63;;;3.25;;
35442;SDS011;21561;55.654;37.592;2023-03-04T00:46:32;14.20;;;3.85;;
35442;SDS011;21561;55.654;37.592;2023-03-04T00:48:59;13.18;;;3.50;;
35442;SDS011;21561;55.654;37.592;2023-03-04T00:51:26;13.85;;;3.45;;
35442;SDS011;21561;55.654;37.592;2023-03-04T00:53:53;12.50;;;3.47;;
35442;SDS011;21561;55.654;37.592;2023-03-04T00:56:20;12.18;;;3.30;;
35442;SDS011;21561;55.654;37.592;2023-03-04T00:58:46;11.77;;;3.53;;
35442;SDS011;21561;55.654;37.592;2023-03-04T01:01:13;12.50;;;3.65;;
35442;SDS011;21561;55.654;37.592;2023-03-04T01:03:40;12.02;;;3.70;;
35442;SDS011;21561;55.654;37.592;2023-03-04T01:06:07;16.17;;;4.15;;
35442;SDS011;21561;55.654;37.592;2023-03-04T01:08:34;13.55;;;4.05;;
35442;SDS011;21561;55.654;37.592;2023-03-04T01:11:01;15.30;;;3.90;;
35442;SDS011;21561;55.654;37.592;2023-03-04T01:13:28;15.93;;;4.10;;
35442;SDS011;21561;55.654;37.592;2023-03-04T01:15:55;14.88;;;4.15;;
35442;SDS011;21561;55.654;37.592;2023-03-04T01:18:23;13.07;;;4.10;;
35442;SDS011;21561;55.654;37.592;2023-03-04T01:20:50;16.40;;;4.68;;
35442;SDS011;21561;55.654;37.592;2023-03-04T01:23:17;17.25;;;4.55;;
35442;SDS011;21561;55.654;37.592;2023-03-04T01:25:44;16.23;;;5.18;;
35442;SDS011;21561;55.654;37.592;2023-03-04T01:28:10;15.98;;;5.20;;
35442;SDS011;21561;55.654;37.592;2023-03-04T01:30:37;17.52;;;5.63;;
35442;SDS011;21561;55.654;37.592;2023-03-04T01:33:04;18.05;;;5.25;;
35442;SDS011;21561;55.654;37.592;2023-03-04T01:35:31;16.75;;;6.32;;
35442;SDS011;21561;55.654;37.592;2023-03-04T01:37:58;17.67;;;5.30;;
35442;SDS011;21561;55.654;37.592;2023-03-04T01:40:25;16.10;;;5.65;;
35442;SDS011;21561;55.654;37.592;2023-03-04T01:42:52;20.42;;;5.40;;
35442;SDS011;21561;55.654;37.592;2023-03-04T01:45:19;19.38;;;6.45;;
35442;SDS011;21561;55.654;37.592;2023-03-04T01:47:46;20.88;;;6.20;;
35442;SDS011;21561;55.654;37.592;2023-03-04T01:52:46;19.17;;;6.07;;
35442;SDS011;21561;55.654;37.592;2023-03-04T01:55:14;16.77;;;5.82;;
35442;SDS011;21561;55.654;37.592;2023-03-04T01:57:43;16.25;;;5.05;;
35442;SDS011;21561;55.654;37.592;2023-03-04T02:02:54;18.48;;;5.95;;
35442;SDS011;21561;55.654;37.592;2023-03-04T02:05:25;16.70;;;5.70;;
35442;SDS011;21561;55.654;37.592;2023-03-04T02:07:53;18.20;;;6.32;;
35442;SDS011;21561;55.654;37.592;2023-03-04T02:10:21;18.80;;;6.35;;
35442;SDS011;21561;55.654;37.592;2023-03-04T02:12:49;16.73;;;6.00;;
35442;SDS011;21561;55.654;37.592;2023-03-04T02:15:16;19.65;;;5.45;;
35442;SDS011;21561;55.654;37.592;2023-03-04T02:17:43;19.77;;;6.20;;
35442;SDS011;21561;55.654;37.592;2023-03-04T02:20:55;21.13;;;6.22;;
35442;SDS011;21561;55.654;37.592;2023-03-04T02:23:27;21.00;;;7.00;;
35442;SDS011;21561;55.654;37.592;2023-03-04T02:26:18;24.15;;;6.63;;
35442;SDS011;21561;55.654;37.592;2023-03-04T02:28:49;21.00;;;7.40;;
35442;SDS011;21561;55.654;37.592;2023-03-04T02:33:50;23.00;;;7.88;;
35442;SDS011;21561;55.654;37.592;2023-03-04T02:36:19;22.52;;;8.25;;
35442;SDS011;21561;55.654;37.592;2023-03-04T02:38:46;27.60;;;7.82;;
35442;SDS011;21561;55.654;37.592;2023-03-04T02:41:16;24.58;;;7.57;;
35442;SDS011;21561;55.654;37.592;2023-03-04T02:43:48;23.27;;;8.30;;
35442;SDS011;21561;55.654;37.592;2023-03-04T02:46:17;24.67;;;9.40;;
35442;SDS011;21561;55.654;37.592;2023-03-04T02:48:44;24.20;;;8.55;;
35442;SDS011;21561;55.654;37.592;2023-03-04T02:51:11;21.08;;;7.40;;
35442;SDS011;21561;55.654;37.592;2023-03-04T02:53:38;25.40;;;7.93;;
35442;SDS011;21561;55.654;37.592;2023-03-04T02:56:04;21.50;;;7.45;;
35442;SDS011;21561;55.654;37.592;2023-03-04T02:58:31;21.70;;;7.72;;
35442;SDS011;21561;55.654;37.592;2023-03-04T03:00:59;24.33;;;8.40;;
35442;SDS011;21561;55.654;37.592;2023-03-04T03:03:25;20.38;;;6.80;;
35442;SDS011;21561;55.654;37.592;2023-03-04T03:05:52;21.60;;;7.40;;
35442;SDS011;21561;55.654;37.592;2023-03-04T03:08:20;21.50;;;7.75;;
35442;SDS011;21561;55.654;37.592;2023-03-04T03:10:46;21.77;;;7.50;;
35442;SDS011;21561;55.654;37.592;2023-03-04T03:13:13;24.45;;;7.95;;
35442;SDS011;21561;55.654;37.592;2023-03-04T03:15:40;20.42;;;7.25;;
35442;SDS011;21561;55.654;37.592;2023-03-04T03:18:08;24.75;;;8.07;;
35442;SDS011;21561;55.654;37.592;2023-03-04T03:20:36;24.75;;;8.45;;
35442;SDS011;21561;55.654;37.592;2023-03-04T03:23:03;21.45;;;7.70;;
35442;SDS011;21561;55.654;37.592;2023-03-04T03:25:30;26.13;;;8.25;;
35442;SDS011;21561;55.654;37.592;2023-03-04T03:27:57;25.08;;;7.38;;
35442;SDS011;21561;55.654;37.592;2023-03-04T03:30:23;30.92;;;9.73;;
35442;SDS011;21561;55.654;37.592;2023-03-04T03:32:50;27.35;;;8.77;;
35442;SDS011;21561;55.654;37.592;2023-03-04T03:35:17;24.80;;;8.23;;
35442;SDS011;21561;55.654;37.592;2023-03-04T03:37:44;29.27;;;10.43;;
35442;SDS011;21561;55.654;37.592;2023-03-04T03:40:11;26.38;;;9.82;;
35442;SDS011;21561;55.654;37.592;2023-03-04T03:42:38;23.67;;;8.25;;
35442;SDS011;21561;55.654;37.592;2023-03-04T03:45:05;30.13;;;9.77;;
35442;SDS011;21561;55.654;37.592;2023-03-04T03:47:32;28.17;;;9.27;;
35442;SDS011;21561;55.654;37.592;2023-03-04T03:49:59;24.60;;;8.60;;
35442;SDS011;21561;55.654;37.592;2023-03-04T03:52:26;20.75;;;7.43;;
35442;SDS011;21561;55.654;37.592;2023-03-04T03:54:53;26.00;;;7.82;;
35442;SDS011;21561;55.654;37.592;2023-03-04T03:57:20;22.25;;;7.43;;
35442;SDS011;21561;55.654;37.592;2023-03-04T03:59:46;22.73;;;7.35;;
35442;SDS011;21561;55.654;37.592;2023-03-04T04:02:13;24.65;;;7.30;;
35442;SDS011;21561;55.654;37.592;2023-03-04T04:04:40;21.45;;;6.72;;
35442;SDS011;21561;55.654;37.592;2023-03-04T04:07:07;20.77;;;7.47;;
35442;SDS011;21561;55.654;37.592;2023-03-04T04:09:34;19.55;;;6.53;;
35442;SDS011;21561;55.654;37.592;2023-03-04T04:12:00;21.10;;;6.68;;
35442;SDS011;21561;55.654;37.592;2023-03-04T04:14:30;20.55;;;6.43;;
35442;SDS011;21561;55.654;37.592;2023-03-04T04:16:56;21.55;;;6.25;;
35442;SDS011;21561;55.654;37.592;2023-03-04T04:19:23;19.33;;;6.45;;
35442;SDS011;21561;55.654;37.592;2023-03-04T04:21:50;16.65;;;5.88;;
35442;SDS011;21561;55.654;37.592;2023-03-04T04:24:18;21.38;;;6.78;;
35442;SDS011;21561;55.654;37.592;2023-03-04T04:26:45;21.48;;;6.40;;
35442;SDS011;21561;55.654;37.592;2023-03-04T04:29:12;19.50;;;5.47;;
35442;SDS011;21561;55.654;37.592;2023-03-04T04:31:39;16.98;;;5.38;;
35442;SDS011;21561;55.654;37.592;2023-03-04T04:34:06;17.83;;;5.47;;
35442;SDS011;21561;55.654;37.592;2023-03-04T04:36:34;20.83;;;5.53;;
35442;SDS011;21561;55.654;37.592;2023-03-04T04:39:01;17.73;;;5.65;;
35442;SDS011;21561;55.654;37.592;2023-03-04T04:41:30;17.48;;;5.32;;
35442;SDS011;21561;55.654;37.592;2023-03-04T04:44:01;15.73;;;4.63;;
35442;SDS011;21561;55.654;37.592;2023-03-04T04:46:28;18.02;;;5.35;;
35442;SDS011;21561;55.654;37.592;2023-03-04T04:48:55;17.10;;;5.35;;
35442;SDS011;21561;55.654;37.592;2023-03-04T04:51:22;15.63;;;5.35;;
35442;SDS011;21561;55.654;37.592;2023-03-04T04:53:49;16.73;;;5.50;;
35442;SDS011;21561;55.654;37.592;2023-03-04T04:56:17;17.45;;;5.78;;
35442;SDS011;21561;55.654;37.592;2023-03-04T04:58:46;15.60;;;5.32;;
35442;SDS011;21561;55.654;37.592;2023-03-04T05:01:14;17.92;;;5.70;;
35442;SDS011;21561;55.654;37.592;2023-03-04T05:03:41;18.33;;;5.60;;
35442;SDS011;21561;55.654;37.592;2023-03-04T05:06:09;19.85;;;5.60;;
35442;SDS011;21561;55.654;37.592;2023-03-04T05:08:37;15.50;;;5.70;;
35442;SDS011;21561;55.654;37.592;2023-03-04T05:11:04;14.38;;;4.95;;
35442;SDS011;21561;55.654;37.592;2023-03-04T05:13:32;19.02;;;5.22;;
35442;SDS011;21561;55.654;37.592;2023-03-04T05:15:59;16.98;;;4.68;;
35442;SDS011;21561;55.654;37.592;2023-03-04T05:18:27;17.45;;;5.45;;
35442;SDS011;21561;55.654;37.592;2023-03-04T05:20:58;15.35;;;5.10;;
35442;SDS011;21561;55.654;37.592;2023-03-04T05:23:27;16.45;;;4.93;;
35442;SDS011;21561;55.654;37.592;2023-03-04T05:25:55;15.25;;;5.00;;
35442;SDS011;21561;55.654;37.592;2023-03-04T05:28:22;14.82;;;4.65;;
35442;SDS011;21561;55.654;37.592;2023-03-04T05:30:49;14.25;;;4.13;;
35442;SDS011;21561;55.654;37.592;2023-03-04T05:33:16;14.95;;;4.88;;
35442;SDS011;21561;55.654;37.592;2023-03-04T05:35:44;18.00;;;5.10;;
35442;SDS011;21561;55.654;37.592;2023-03-04T05:38:14;18.42;;;4.70;;
35442;SDS011;21561;55.654;37.592;2023-03-04T05:40:42;14.93;;;5.20;;
35442;SDS011;21561;55.654;37.592;2023-03-04T05:43:09;16.13;;;4.90;;
35442;SDS011;21561;55.654;37.592;2023-03-04T05:45:36;14.25;;;4.65;;
35442;SDS011;21561;55.654;37.592;2023-03-04T05:48:04;14.75;;;4.82;;
35442;SDS011;21561;55.654;37.592;2023-03-04T05:50:32;16.00;;;4.70;;
35442;SDS011;21561;55.654;37.592;2023-03-04T05:52:59;15.32;;;5.15;;
35442;SDS011;21561;55.654;37.592;2023-03-04T05:55:26;17.65;;;4.90;;
35442;SDS011;21561;55.654;37.592;2023-03-04T05:57:55;15.68;;;5.22;;
35442;SDS011;21561;55.654;37.592;2023-03-04T06:00:23;16.77;;;5.05;;
35442;SDS011;21561;55.654;37.592;2023-03-04T06:02:50;16.98;;;4.60;;
35442;SDS011;21561;55.654;37.592;2023-03-04T06:05:17;15.50;;;4.60;;
35442;SDS011;21561;55.654;37.592;2023-03-04T06:07:45;13.52;;;4.47;;
35442;SDS011;21561;55.654;37.592;2023-03-04T06:10:12;15.10;;;4.28;;
35442;SDS011;21561;55.654;37.592;2023-03-04T06:12:41;16.35;;;4.68;;
35442;SDS011;21561;55.654;37.592;2023-03-04T06:15:08;13.90;;;4.78;;
35442;SDS011;21561;55.654;37.592;2023-03-04T06:17:38;15.90;;;5.00;;
35442;SDS011;21561;55.654;37.592;2023-03-04T06:20:07;10.27;;;3.53;;
35442;SDS011;21561;55.654;37.592;2023-03-04T06:22:36;14.75;;;3.80;;
35442;SDS011;21561;55.654;37.592;2023-03-04T06:25:03;16.13;;;3.88;;
35442;SDS011;21561;55.654;37.592;2023-03-04T06:27:30;11.35;;;3.42;;
35442;SDS011;21561;55.654;37.592;2023-03-04T06:29:57;12.05;;;4.25;;
35442;SDS011;21561;55.654;37.592;2023-03-04T06:32:24;11.88;;;3.20;;
35442;SDS011;21561;55.654;37.592;2023-03-04T06:34:51;10.27;;;3.80;;
35442;SDS011;21561;55.654;37.592;2023-03-04T06:37:18;13.55;;;4.03;;
35442;SDS011;21561;55.654;37.592;2023-03-04T06:39:45;15.93;;;4.85;;
35442;SDS011;21561;55.654;37.592;2023-03-04T06:42:12;13.45;;;3.70;;
35442;SDS011;21561;55.654;37.592;2023-03-04T06:44:40;12.25;;;3.75;;
35442;SDS011;21561;55.654;37.592;2023-03-04T06:47:07;11.02;;;3.53;;
35442;SDS011;21561;55.654;37.592;2023-03-04T06:49:33;16.30;;;4.25;;
35442;SDS011;21561;55.654;37.592;2023-03-04T06:52:00;13.13;;;3.83;;
35442;SDS011;21561;55.654;37.592;2023-03-04T06:54:27;13.10;;;3.83;;
35442;SDS011;21561;55.654;37.592;2023-03-04T06:56:54;11.75;;;3.70;;
35442;SDS011;21561;55.654;37.592;2023-03-04T06:59:21;13.43;;;4.05;;
35442;SDS011;21561;55.654;37.592;2023-03-04T07:01:48;14.40;;;4.20;;
35442;SDS011;21561;55.654;37.592;2023-03-04T07:04:15;13.10;;;4.00;;
35442;SDS011;21561;55.654;37.592;2023-03-04T07:06:42;12.75;;;3.78;;
35442;SDS011;21561;55.654;37.592;2023-03-04T07:09:09;13.40;;;3.60;;
35442;SDS011;21561;55.654;37.592;2023-03-04T07:11:36;15.40;;;4.53;;
35442;SDS011;21561;55.654;37.592;2023-03-04T07:14:04;12.63;;;3.92;;
35442;SDS011;21561;55.654;37.592;2023-03-04T07:16:30;15.68;;;4.03;;
35442;SDS011;21561;55.654;37.592;2023-03-04T07:18:58;13.57;;;3.97;;
35442;SDS011;21561;55.654;37.592;2023-03-04T07:21:25;12.05;;;3.53;;
35442;SDS011;21561;55.654;37.592;2023-03-04T07:23:52;11.40;;;3.72;;
35442;SDS011;21561;55.654;37.592;2023-03-04T07:26:19;13.00;;;3.88;;
35442;SDS011;21561;55.654;37.592;2023-03-04T07:28:46;14.32;;;3.88;;
35442;SDS011;21561;55.654;37.592;2023-03-04T07:31:20;15.02;;;3.90;;
35442;SDS011;21561;55.654;37.592;2023-03-04T07:33:50;13.88;;;4.00;;
35442;SDS011;21561;55.654;37.592;2023-03-04T07:36:17;13.90;;;3.67;;
35442;SDS011;21561;55.654;37.592;2023-03-04T07:38:46;13.25;;;4.03;;
35442;SDS011;21561;55.654;37.592;2023-03-04T07:41:14;13.85;;;3.65;;
35442;SDS011;21561;55.654;37.592;2023-03-04T07:43:42;12.27;;;3.45;;
35442;SDS011;21561;55.654;37.592;2023-03-04T07:46:09;15.48;;;4.05;;
35442;SDS011;21561;55.654;37.592;2023-03-04T07:48:36;11.23;;;3.75;;
35442;SDS011;21561;55.654;37.592;2023-03-04T07:51:10;11.73;;;3.60;;
35442;SDS011;21561;55.654;37.592;2023-03-04T07:53:40;12.95;;;3.70;;
35442;SDS011;21561;55.654;37.592;2023-03-04T07:56:10;13.43;;;3.78;;
35442;SDS011;21561;55.654;37.592;2023-03-04T07:58:39;13.98;;;3.45;;
35442;SDS011;21561;55.654;37.592;2023-03-04T08:01:13;11.07;;;3.65;;
35442;SDS011;21561;55.654;37.592;2023-03-04T08:03:42;11.85;;;3.47;;
35442;SDS011;21561;55.654;37.592;2023-03-04T08:06:11;11.70;;;3.60;;
35442;SDS011;21561;55.654;37.592;2023-03-04T08:08:40;10.73;;;3.50;;
35442;SDS011;21561;55.654;37.592;2023-03-04T08:11:09;10.98;;;3.53;;
35442;SDS011;21561;55.654;37.592;2023-03-04T08:13:41;12.35;;;3.60;;
35442;SDS011;21561;55.654;37.592;2023-03-04T08:16:09;14.35;;;3.60;;
35442;SDS011;21561;55.654;37.592;2023-03-04T08:18:41;10.63;;;3.63;;
35442;SDS011;21561;55.654;37.592;2023-03-04T08:21:16;13.18;;;3.50;;
35442;SDS011;21561;55.654;37.592;2023-03-04T08:23:45;9.85;;;3.60;;
35442;SDS011;21561;55.654;37.592;2023-03-04T08:26:19;12.95;;;4.55;;
35442;SDS011;21561;55.654;37.592;2023-03-04T08:28:51;11.25;;;3.50;;
35442;SDS011;21561;55.654;37.592;2023-03-04T08:31:19;10.52;;;3.50;;
35442;SDS011;21561;55.654;37.592;2023-03-04T08:33:46;13.63;;;3.75;;
35442;SDS011;21561;55.654;37.592;2023-03-04T08:36:13;14.30;;;5.20;;
35442;SDS011;21561;55.654;37.592;2023-03-04T08:38:41;11.25;;;3.45;;
35442;SDS011;21561;55.654;37.592;2023-03-04T08:41:08;10.77;;;3.17;;
35442;SDS011;21561;55.654;37.592;2023-03-04T08:43:35;10.40;;;3.00;;
35442;SDS011;21561;55.654;37.592;2023-03-04T08:46:02;11.52;;;2.80;;
35442;SDS011;21561;55.654;37.592;2023-03-04T08:48:30;7.28;;;2.70;;
35442;SDS011;21561;55.654;37.592;2023-03-04T08:50:57;8.85;;;2.47;;
35442;SDS011;21561;55.654;37.592;2023-03-04T08:53:24;9.43;;;2.38;;
35442;SDS011;21561;55.654;37.592;2023-03-04T08:55:51;9.27;;;2.95;;
35442;SDS011;21561;55.654;37.592;2023-03-04T08:58:18;8.85;;;2.40;;
35442;SDS011;21561;55.654;37.592;2023-03-04T09:00:45;12.75;;;3.40;;
35442;SDS011;21561;55.654;37.592;2023-03-04T09:03:15;9.88;;;2.78;;
35442;SDS011;21561;55.654;37.592;2023-03-04T09:05:43;7.78;;;2.50;;
35442;SDS011;21561;55.654;37.592;2023-03-04T09:08:11;12.15;;;3.00;;
35442;SDS011;21561;55.654;37.592;2023-03-04T09:10:38;11.82;;;3.15;;
35442;SDS011;21561;55.654;37.592;2023-03-04T09:13:05;17.17;;;2.83;;
35442;SDS011;21561;55.654;37.592;2023-03-04T09:15:33;12.13;;;3.33;;
35442;SDS011;21561;55.654;37.592;2023-03-04T09:18:03;8.52;;;2.85;;
35442;SDS011;21561;55.654;37.592;2023-03-04T09:20:31;8.25;;;2.65;;
35442;SDS011;21561;55.654;37.592;2023-03-04T09:22:58;8.20;;;2.40;;
35442;SDS011;21561;55.654;37.592;2023-03-04T09:25:24;8.30;;;2.60;;
35442;SDS011;21561;55.654;37.592;2023-03-04T09:27:51;8.05;;;3.00;;
35442;SDS011;21561;55.654;37.592;2023-03-04T09:30:19;11.63;;;2.80;;
35442;SDS011;21561;55.654;37.592;2023-03-04T09:32:46;8.02;;;2.50;;
35442;SDS011;21561;55.654;37.592;2023-03-04T09:35:13;7.85;;;2.50;;
35442;SDS011;21561;55.654;37.592;2023-03-04T09:37:39;8.40;;;2.40;;
35442;SDS011;21561;55.654;37.592;2023-03-04T09:40:07;8.57;;;2.50;;
35442;SDS011;21561;55.654;37.592;2023-03-04T09:42:51;7.65;;;2.38;;
35442;SDS011;21561;55.654;37.592;2023-03-04T09:45:21;8.43;;;2.40;;
35442;SDS011;21561;55.654;37.592;2023-03-04T09:47:52;6.72;;;2.30;;
35442;SDS011;21561;55.654;37.592;2023-03-04T09:50:20;8.70;;;2.58;;
35442;SDS011;21561;55.654;37.592;2023-03-04T09:55:36;7.22;;;2.10;;
35442;SDS011;21561;55.654;37.592;2023-03-04T09:58:10;9.10;;;2.40;;
35442;SDS011;21561;55.654;37.592;2023-03-04T10:00:42;7.40;;;2.30;;
35442;SDS011;21561;55.654;37.592;2023-03-04T10:11:39;5.07;;;1.80;;
35442;SDS011;21561;55.654;37.592;2023-03-04T10:19:37;6.55;;;2.33;;
35442;SDS011;21561;55.654;37.592;2023-03-04T10:22:43;6.22;;;2.10;;
35442;SDS011;21561;55.654;37.592;2023-03-04T10:25:18;4.93;;;1.70;;
35442;SDS011;21561;55.654;37.592;2023-03-04T10:28:22;5.05;;;1.88;;
35442;SDS011;21561;55.654;37.592;2023-03-04T10:30:45;9.82;;;2.30;;
35442;SDS011;21561;55.654;37.592;2023-03-04T10:33:18;9.18;;;2.42;;
35442;SDS011;21561;55.654;37.592;2023-03-04T10:35:51;11.25;;;2.72;;
35442;SDS011;21561;55.654;37.592;2023-03-04T10:38:25;9.80;;;2.88;;
35442;SDS011;21561;55.654;37.592;2023-03-04T10:40:59;13.23;;;3.33;;
35442;SDS011;21561;55.654;37.592;2023-03-04T10:43:27;10.68;;;3.25;;
35442;SDS011;21561;55.654;37.592;2023-03-04T10:45:54;11.70;;;3.35;;
35442;SDS011;21561;55.654;37.592;2023-03-04T10:48:24;10.98;;;3.38;;
35442;SDS011;21561;55.654;37.592;2023-03-04T10:50:53;9.15;;;3.28;;
35442;SDS011;21561;55.654;37.592;2023-03-04T10:53:36;13.25;;;3.70;;
35442;SDS011;21561;55.654;37.592;2023-03-04T11:01:58;11.52;;;3.70;;
35442;SDS011;21561;55.654;37.592;2023-03-04T11:04:27;13.43;;;3.88;;
35442;SDS011;21561;55.654;37.592;2023-03-04T11:06:59;10.63;;;3.63;;
35442;SDS011;21561;55.654;37.592;2023-03-04T11:09:27;12.55;;;3.80;;
35442;SDS011;21561;55.654;37.592;2023-03-04T11:12:00;13.35;;;4.05;;
35442;SDS011;21561;55.654;37.592;2023-03-04T11:14:39;11.85;;;3.38;;
35442;SDS011;21561;55.654;37.592;2023-03-04T11:19:52;9.48;;;3.10;;
35442;SDS011;21561;55.654;37.592;2023-03-04T11:22:38;12.70;;;3.83;;
35442;SDS011;21561;55.654;37.592;2023-03-04T11:25:07;11.07;;;3.15;;
35442;SDS011;21561;55.654;37.592;2023-03-04T11:27:47;12.18;;;3.33;;
35442;SDS011;21561;55.654;37.592;2023-03-04T11:32:53;14.30;;;3.85;;
35442;SDS011;21561;55.654;37.592;2023-03-04T11:35:26;13.77;;;3.75;;
35442;SDS011;21561;55.654;37.592;2023-03-04T11:38:09;11.75;;;3.63;;
35442;SDS011;21561;55.654;37.592;2023-03-04T11:40:45;10.63;;;3.20;;
35442;SDS011;21561;55.654;37.592;2023-03-04T11:43:31;10.05;;;3.13;;
35442;SDS011;21561;55.654;37.592;2023-03-04T11:46:15;9.20;;;3.30;;
35442;SDS011;21561;55.654;37.592;2023-03-04T11:48:52;10.68;;;3.42;;
35442;SDS011;21561;55.654;37.592;2023-03-04T12:06:48;10.93;;;3.08;;
35442;SDS011;21561;55.654;37.592;2023-03-04T12:14:26;9.30;;;2.80;;
35442;SDS011;21561;55.654;37.592;2023-03-04T12:20:21;11.07;;;3.22;;
35442;SDS011;21561;55.654;37.592;2023-03-04T12:28:38;10.70;;;3.35;;
35442;SDS011;21561;55.654;37.592;2023-03-04T12:37:56;10.00;;;3.75;;
35442;SDS011;21561;55.654;37.592;2023-03-04T12:40:14;14.98;;;3.55;;
35442;SDS011;21561;55.654;37.592;2023-03-04T12:47:54;11.00;;;3.13;;
35442;SDS011;21561;55.654;37.592;2023-03-04T12:50:41;12.10;;;3.42;;
35442;SDS011;21561;55.654;37.592;2023-03-04T12:56:02;14.82;;;4.40;;
35442;SDS011;21561;55.654;37.592;2023-03-04T12:58:31;13.20;;;3.92;;
35442;SDS011;21561;55.654;37.592;2023-03-04T13:03:43;16.98;;;4.82;;
35442;SDS011;21561;55.654;37.592;2023-03-04T13:09:07;14.82;;;5.00;;
35442;SDS011;21561;55.654;37.592;2023-03-04T13:11:42;13.60;;;4.82;;
35442;SDS011;21561;55.654;37.592;2023-03-04T13:16:51;14.05;;;4.70;;
35442;SDS011;21561;55.654;37.592;2023-03-04T13:30:40;15.82;;;5.22;;
35442;SDS011;21561;55.654;37.592;2023-03-04T13:43:50;11.45;;;3.60;;
35442;SDS011;21561;55.654;37.592;2023-03-04T13:51:30;14.60;;;4.20;;
35442;SDS011;21561;55.654;37.592;2023-03-04T13:56:27;12.50;;;3.50;;
35442;SDS011;21561;55.654;37.592;2023-03-04T14:01:34;12.25;;;4.10;;
35442;SDS011;21561;55.654;37.592;2023-03-04T14:06:44;12.15;;;3.70;;
35442;SDS011;21561;55.654;37.592;2023-03-04T14:09:19;17.85;;;4.00;;
35442;SDS011;21561;55.654;37.592;2023-03-04T14:11:49;14.10;;;4.10;;
35442;SDS011;21561;55.654;37.592;2023-03-04T14:14:53;12.52;;;3.85;;
35442;SDS011;21561;55.654;37.592;2023-03-04T14:20:28;12.07;;;3.67;;
35442;SDS011;21561;55.654;37.592;2023-03-04T14:23:03;11.35;;;3.58;;
35442;SDS011;21561;55.654;37.592;2023-03-04T14:25:48;12.95;;;4.07;;
35442;SDS011;21561;55.654;37.592;2023-03-04T14:28:16;11.63;;;3.67;;
35442;SDS011;21561;55.654;37.592;2023-03-04T14:30:51;12.00;;;3.47;;
35442;SDS011;21561;55.654;37.592;2023-03-04T14:33:22;12.50;;;3.72;;
35442;SDS011;21561;55.654;37.592;2023-03-04T14:35:52;14.90;;;4.68;;
35442;SDS011;21561;55.654;37.592;2023-03-04T14:38:25;16.27;;;4.90;;
35442;SDS011;21561;55.654;37.592;2023-03-04T14:41:07;13.60;;;4.05;;
35442;SDS011;21561;55.654;37.592;2023-03-04T14:43:52;14.88;;;4.38;;
35442;SDS011;21561;55.654;37.592;2023-03-04T14:48:52;13.23;;;4.03;;
35442;SDS011;21561;55.654;37.592;2023-03-04T14:53:56;12.98;;;4.03;;
35442;SDS011;21561;55.654;37.592;2023-03-04T14:56:27;12.70;;;4.57;;
35442;SDS011;21561;55.654;37.592;2023-03-04T14:58:57;15.57;;;4.60;;
35442;SDS011;21561;55.654;37.592;2023-03-04T15:03:56;13.93;;;4.53;;
35442;SDS011;21561;55.654;37.592;2023-03-04T15:06:29;13.85;;;4.75;;
35442;SDS011;21561;55.654;37.592;2023-03-04T15:12:03;11.82;;;4.13;;
35442;SDS011;21561;55.654;37.592;2023-03-04T15:14:47;13.32;;;4.82;;
35442;SDS011;21561;55.654;37.592;2023-03-04T15:17:23;13.98;;;4.43;;
35442;SDS011;21561;55.654;37.592;2023-03-04T15:25:02;14.95;;;5.50;;
35442;SDS011;21561;55.654;37.592;2023-03-04T15:27:29;16.23;;;5.57;;
35442;SDS011;21561;55.654;37.592;2023-03-04T15:29:57;16.17;;;6.03;;
35442;SDS011;21561;55.654;37.592;2023-03-04T15:32:27;14.80;;;5.32;;
35442;SDS011;21561;55.654;37.592;2023-03-04T15:34:55;16.42;;;5.93;;
35442;SDS011;21561;55.654;37.592;2023-03-04T15:37:23;16.02;;;5.88;;
35442;SDS011;21561;55.654;37.592;2023-03-04T15:42:21;18.20;;;6.88;;
35442;SDS011;21561;55.654;37.592;2023-03-04T15:44:49;17.25;;;6.72;;
35442;SDS011;21561;55.654;37.592;2023-03-04T15:47:16;17.58;;;7.75;;
35442;SDS011;21561;55.654;37.592;2023-03-04T15:49:43;20.48;;;6.97;;
35442;SDS011;21561;55.654;37.592;2023-03-04T15:54:46;19.10;;;6.90;;
35442;SDS011;21561;55.654;37.592;2023-03-04T15:57:17;16.42;;;6.50;;
35442;SDS011;21561;55.654;37.592;2023-03-04T15:59:47;20.02;;;7.18;;
35442;SDS011;21561;55.654;37.592;2023-03-04T16:02:18;18.73;;;6.95;;
35442;SDS011;21561;55.654;37.592;2023-03-04T16:04:46;18.77;;;7.40;;
35442;SDS011;21561;55.654;37.592;2023-03-04T16:07:17;18.75;;;7.55;;
35442;SDS011;21561;55.654;37.592;2023-03-04T16:09:47;17.33;;;6.80;;
35442;SDS011;21561;55.654;37.592;2023-03-04T16:12:19;15.98;;;6.20;;
35442;SDS011;21561;55.654;37.592;2023-03-04T16:14:46;16.27;;;5.72;;
35442;SDS011;21561;55.654;37.592;2023-03-04T16:17:13;16.02;;;6.60;;
35442;SDS011;21561;55.654;37.592;2023-03-04T16:19:43;18.00;;;6.88;;
35442;SDS011;21561;55.654;37.592;2023-03-04T16:22:14;17.52;;;6.47;;
35442;SDS011;21561;55.654;37.592;2023-03-04T16:24:43;18.15;;;6.95;;
35442;SDS011;21561;55.654;37.592;2023-03-04T16:27:13;15.18;;;5.95;;
35442;SDS011;21561;55.654;37.592;2023-03-04T16:29:43;17.38;;;6.68;;
35442;SDS011;21561;55.654;37.592;2023-03-04T16:32:10;16.73;;;6.20;;
35442;SDS011;21561;55.654;37.592;2023-03-04T16:34:37;16.13;;;6.15;;
35442;SDS011;21561;55.654;37.592;2023-03-04T16:37:06;17.95;;;6.35;;
35442;SDS011;21561;55.654;37.592;2023-03-04T16:39:37;17.55;;;6.28;;
35442;SDS011;21561;55.654;37.592;2023-03-04T16:42:08;17.13;;;6.70;;
35442;SDS011;21561;55.654;37.592;2023-03-04T16:44:41;15.75;;;6.10;;
35442;SDS011;21561;55.654;37.592;2023-03-04T16:47:08;16.63;;;5.97;;
35442;SDS011;21561;55.654;37.592;2023-03-04T16:49:35;15.63;;;6.03;;
35442;SDS011;21561;55.654;37.592;2023-03-04T16:52:02;17.27;;;6.25;;
35442;SDS011;21561;55.654;37.592;2023-03-04T16:54:32;18.98;;;5.90;;
35442;SDS011;21561;55.654;37.592;2023-03-04T16:57:01;14.80;;;5.40;;
35442;SDS011;21561;55.654;37.592;2023-03-04T16:59:28;15.77;;;6.05;;
35442;SDS011;21561;55.654;37.592;2023-03-04T17:01:55;16.05;;;5.97;;
35442;SDS011;21561;55.654;37.592;2023-03-04T17:04:22;15.70;;;5.57;;